Time,TemperatureF,DewpointF,PressureIn,WindDirection,WindDirectionDegrees,WindSpeedMPH,WindSpeedGustMPH,Humidity,HourlyPrecipIn,Conditions,Clouds,dailyrainin,SoftwareType,DateUTC
2013-05-19 00:03:00,62.2,30.2,29.89,NW,308,6.0,9.0,30,0.00,,,0.00,WUHU216DAVISVP2,2013-05-19 07:03:00,
2013-05-19 00:08:00,61.6,29.6,29.89,NW,317,6.0,9.0,30,0.00,,,0.00,WUHU216DAVISVP2,2013-05-19 07:08:00,
2013-05-19 00:13:00,61.2,30.1,29.89,NW,312,5.0,7.0,31,0.00,,,0.00,WUHU216DAVISVP2,2013-05-19 07:13:00,
2013-05-19 00:18:00,61.2,29.3,29.89,NW,316,5.0,9.0,30,0.00,,,0.00,WUHU216DAVISVP2,2013-05-19 07:18:00,
2013-05-19 00:23:00,61.2,29.3,29.89,NW,314,5.0,8.0,30,0.00,,,0.00,WUHU216DAVISVP2,2013-05-19 07:23:00,
2013-05-19 00:28:00,61.1,29.2,29.88,NW,315,4.0,6.0,30,0.00,,,0.00,WUHU216DAVISVP2,2013-05-19 07:28:00,
2013-05-19 00:33:00,60.8,29.7,29.88,NW,324,3.0,6.0,31,0.00,,,0.00,WUHU216DAVISVP2,2013-05-19 07:33:00,
2013-05-19 00:39:00,60.5,29.5,29.88,NW,316,4.0,7.0,31,0.00,,,0.00,WUHU216DAVISVP2,2013-05-19 07:39:00,
2013-05-19 00:44:00,60.3,30.1,29.88,NW,320,4.0,8.0,32,0.00,,,0.00,WUHU216DAVISVP2,2013-05-19 07:44:00,
2013-05-19 00:49:00,60.1,29.9,29.88,NW,320,5.0,8.0,32,0.00,,,0.00,WUHU216DAVISVP2,2013-05-19 07:49:00,
2013-05-19 00:54:00,60.1,29.9,29.88,NW,317,5.0,8.0,32,0.00,,,0.00,WUHU216DAVISVP2,2013-05-19 07:54:00,
2013-05-19 00:59:00,60.0,30.6,29.88,NW,315,5.0,8.0,33,0.00,,,0.00,WUHU216DAVISVP2,2013-05-19 07:59:00,
2013-05-19 01:04:00,59.9,30.5,29.88,NW,316,5.0,8.0,33,0.00,,,0.00,WUHU216DAVISVP2,2013-05-19 08:04:00,
2013-05-19 01:09:00,59.9,30.5,29.88,NW,315,4.0,8.0,33,0.00,,,0.00,WUHU216DAVISVP2,2013-05-19 08:09:00,
2013-05-19 01:14:00,60.0,30.6,29.88,NW,319,5.0,9.0,33,0.00,,,0.00,WUHU216DAVISVP2,2013-05-19 08:14:00,
2013-05-19 01:19:00,60.1,30.7,29.88,NW,312,4.0,7.0,33,0.00,,,0.00,WUHU216DAVISVP2,2013-05-19 08:19:00,
2013-05-19 01:24:00,60.1,30.7,29.88,NW,308,3.0,6.0,33,0.00,,,0.00,WUHU216DAVISVP2,2013-05-19 08:24:00,
2013-05-19 01:29:00,60.1,31.4,29.88,WNW,302,3.0,5.0,34,0.00,,,0.00,WUHU216DAVISVP2,2013-05-19 08:29:00,
2013-05-19 01:34:00,59.9,31.2,29.88,WNW,296,2.0,4.0,34,0.00,,,0.00,WUHU216DAVISVP2,2013-05-19 08:34:00,
2013-05-19 01:39:00,59.7,31.8,29.88,WNW,285,2.0,4.0,35,0.00,,,0.00,WUHU216DAVISVP2,2013-05-19 08:39:00,
2013-05-19 01:44:00,59.6,32.4,29.88,WNW,292,3.0,6.0,36,0.00,,,0.00,WUHU216DAVISVP2,2013-05-19 08:44:00,
2013-05-19 01:49:00,59.8,32.6,29.88,West,280,4.0,10.0,36,0.00,,,0.00,WUHU216DAVISVP2,2013-05-19 08:49:00,
2013-05-19 01:54:00,59.7,32.5,29.88,WNW,282,2.0,5.0,36,0.00,,,0.00,WUHU216DAVISVP2,2013-05-19 08:54:00,
2013-05-19 01:59:00,59.3,32.1,29.88,West,275,2.0,3.0,36,0.00,,,0.00,WUHU216DAVISVP2,2013-05-19 08:59:00,
2013-05-19 02:05:00,58.8,31.7,29.88,West,272,1.0,2.0,36,0.00,,,0.00,WUHU216DAVISVP2,2013-05-19 09:05:00,
2013-05-19 02:10:00,58.2,31.8,29.88,North,0,0.0,0.0,37,0.00,,,0.00,WUHU216DAVISVP2,2013-05-19 09:10:00,
2013-05-19 02:15:00,57.6,32.0,29.88,West,271,2.0,2.0,38,0.00,,,0.00,WUHU216DAVISVP2,2013-05-19 09:15:00,
2013-05-19 02:20:00,57.0,32.1,29.88,West,270,1.0,1.0,39,0.00,,,0.00,WUHU216DAVISVP2,2013-05-19 09:20:00,
2013-05-19 02:25:00,56.4,31.6,29.88,North,0,0.0,0.0,39,0.00,,,0.00,WUHU216DAVISVP2,2013-05-19 09:25:00,
2013-05-19 02:30:00,55.8,31.0,29.88,North,0,0.0,0.0,39,0.00,,,0.00,WUHU216DAVISVP2,2013-05-19 09:30:00,
2013-05-19 02:35:00,55.0,31.6,29.89,North,0,0.0,0.0,41,0.00,,,0.00,WUHU216DAVISVP2,2013-05-19 09:35:00,
2013-05-19 02:40:00,54.2,31.5,29.89,North,0,0.0,0.0,42,0.00,,,0.00,WUHU216DAVISVP2,2013-05-19 09:40:00,
2013-05-19 02:45:00,53.4,31.3,29.89,West,270,1.0,2.0,43,0.00,,,0.00,WUHU216DAVISVP2,2013-05-19 09:45:00,
2013-05-19 02:50:00,52.9,31.5,29.89,North,0,0.0,0.0,44,0.00,,,0.00,WUHU216DAVISVP2,2013-05-19 09:50:00,
2013-05-19 02:55:00,52.3,31.5,29.89,West,270,1.0,2.0,45,0.00,,,0.00,WUHU216DAVISVP2,2013-05-19 09:55:00,
2013-05-19 03:00:00,52.1,31.9,29.89,West,270,1.0,2.0,46,0.00,,,0.00,WUHU216DAVISVP2,2013-05-19 10:00:00,
2013-05-19 03:05:00,51.0,30.3,29.89,WNW,282,1.0,2.0,45,0.00,,,0.00,WUHU216DAVISVP2,2013-05-19 10:05:00,
2013-05-19 03:11:00,50.0,29.9,29.89,WNW,294,1.0,2.0,46,0.00,,,0.00,WUHU216DAVISVP2,2013-05-19 10:11:00,
2013-05-19 03:16:00,49.4,29.9,29.89,NW,311,1.0,3.0,47,0.00,,,0.00,WUHU216DAVISVP2,2013-05-19 10:16:00,
2013-05-19 03:21:00,48.9,30.0,29.89,NW,320,1.0,2.0,48,0.00,,,0.00,WUHU216DAVISVP2,2013-05-19 10:21:00,
2013-05-19 03:26:00,48.4,30.1,29.89,NW,320,1.0,1.0,49,0.00,,,0.00,WUHU216DAVISVP2,2013-05-19 10:26:00,
2013-05-19 03:31:00,47.9,29.6,29.89,NW,320,1.0,2.0,49,0.00,,,0.00,WUHU216DAVISVP2,2013-05-19 10:31:00,
2013-05-19 03:36:00,47.3,29.6,29.89,NW,321,2.0,3.0,50,0.00,,,0.00,WUHU216DAVISVP2,2013-05-19 10:36:00,
2013-05-19 03:41:00,47.1,29.9,29.89,NW,321,2.0,2.0,51,0.00,,,0.00,WUHU216DAVISVP2,2013-05-19 10:41:00,
2013-05-19 03:46:00,47.1,30.4,29.89,NW,321,1.0,1.0,52,0.00,,,0.00,WUHU216DAVISVP2,2013-05-19 10:46:00,
2013-05-19 03:51:00,47.1,30.4,29.89,NW,322,1.0,2.0,52,0.00,,,0.00,WUHU216DAVISVP2,2013-05-19 10:51:00,
2013-05-19 03:56:00,47.0,30.8,29.89,NW,322,1.0,1.0,53,0.00,,,0.00,WUHU216DAVISVP2,2013-05-19 10:56:00,
2013-05-19 04:01:00,47.3,31.0,29.89,NW,321,1.0,2.0,53,0.00,,,0.00,WUHU216DAVISVP2,2013-05-19 11:01:00,
2013-05-19 04:06:00,47.5,30.2,29.89,NW,322,1.0,2.0,51,0.00,,,0.00,WUHU216DAVISVP2,2013-05-19 11:06:00,
2013-05-19 04:11:00,47.1,30.4,29.89,NW,323,1.0,3.0,52,0.00,,,0.00,WUHU216DAVISVP2,2013-05-19 11:11:00,
2013-05-19 04:16:00,46.7,30.0,29.89,NW,325,1.0,2.0,52,0.00,,,0.00,WUHU216DAVISVP2,2013-05-19 11:16:00,
2013-05-19 04:21:00,46.4,30.2,29.89,NNW,329,2.0,3.0,53,0.00,,,0.00,WUHU216DAVISVP2,2013-05-19 11:21:00,
2013-05-19 04:26:00,46.4,30.2,29.89,NNW,338,2.0,3.0,53,0.00,,,0.00,WUHU216DAVISVP2,2013-05-19 11:26:00,
2013-05-19 04:31:00,46.6,30.9,29.89,NNW,339,1.0,2.0,54,0.00,,,0.00,WUHU216DAVISVP2,2013-05-19 11:31:00,
2013-05-19 04:37:00,46.8,31.0,29.89,NNW,337,2.0,3.0,54,0.00,,,0.00,WUHU216DAVISVP2,2013-05-19 11:37:00,
2013-05-19 04:42:00,47.5,31.7,29.89,NNW,328,1.0,3.0,54,0.00,,,0.00,WUHU216DAVISVP2,2013-05-19 11:42:00,
2013-05-19 04:47:00,49.5,32.6,29.89,NW,326,2.0,4.0,52,0.00,,,0.00,WUHU216DAVISVP2,2013-05-19 11:47:00,
2013-05-19 04:52:00,51.5,32.9,29.88,NNW,327,2.0,4.0,49,0.00,,,0.00,WUHU216DAVISVP2,2013-05-19 11:52:00,
2013-05-19 04:57:00,53.1,32.8,29.88,NNW,327,3.0,4.0,46,0.00,,,0.00,WUHU216DAVISVP2,2013-05-19 11:57:00,
2013-05-19 05:02:00,54.0,33.0,29.88,NW,324,2.0,4.0,45,0.00,,,0.00,WUHU216DAVISVP2,2013-05-19 12:02:00,
2013-05-19 05:07:00,54.7,33.1,29.88,NW,320,2.0,4.0,44,0.00,,,0.00,WUHU216DAVISVP2,2013-05-19 12:07:00,
2013-05-19 05:12:00,55.3,33.1,29.88,NNW,328,3.0,5.0,43,0.00,,,0.00,WUHU216DAVISVP2,2013-05-19 12:12:00,
2013-05-19 05:17:00,55.3,33.1,29.88,NNW,332,2.0,4.0,43,0.00,,,0.00,WUHU216DAVISVP2,2013-05-19 12:17:00,
2013-05-19 05:22:00,55.2,33.0,29.89,NW,325,2.0,3.0,43,0.00,,,0.00,WUHU216DAVISVP2,2013-05-19 12:22:00,
2013-05-19 05:27:00,55.0,32.8,29.89,NW,320,2.0,4.0,43,0.00,,,0.00,WUHU216DAVISVP2,2013-05-19 12:27:00,
2013-05-19 05:32:00,55.1,32.9,29.89,NW,322,2.0,5.0,43,0.00,,,0.00,WUHU216DAVISVP2,2013-05-19 12:32:00,
2013-05-19 05:37:00,55.6,32.7,29.89,NW,312,2.0,4.0,42,0.00,,,0.00,WUHU216DAVISVP2,2013-05-19 12:37:00,
2013-05-19 05:42:00,56.1,33.2,29.89,NW,320,3.0,6.0,42,0.00,,,0.00,WUHU216DAVISVP2,2013-05-19 12:42:00,
2013-05-19 05:47:00,56.7,33.1,29.89,NW,314,2.0,5.0,41,0.00,,,0.00,WUHU216DAVISVP2,2013-05-19 12:47:00,
2013-05-19 05:52:00,57.4,33.1,29.88,NW,317,3.0,5.0,40,0.00,,,0.00,WUHU216DAVISVP2,2013-05-19 12:52:00,
2013-05-19 05:58:00,58.0,33.0,29.88,NW,318,2.0,6.0,39,0.00,,,0.00,WUHU216DAVISVP2,2013-05-19 12:58:00,
2013-05-19 06:03:00,58.6,32.9,29.89,NW,325,3.0,6.0,38,0.00,,,0.00,WUHU216DAVISVP2,2013-05-19 13:03:00,
2013-05-19 06:08:00,59.2,33.4,29.89,NW,322,3.0,6.0,38,0.00,,,0.00,WUHU216DAVISVP2,2013-05-19 13:08:00,
2013-05-19 06:13:00,59.7,33.2,29.89,NW,317,3.0,6.0,37,0.00,,,0.00,WUHU216DAVISVP2,2013-05-19 13:13:00,
2013-05-19 06:18:00,60.2,33.6,29.89,NW,320,4.0,7.0,37,0.00,,,0.00,WUHU216DAVISVP2,2013-05-19 13:18:00,
2013-05-19 06:23:00,60.7,33.4,29.89,NW,324,3.0,5.0,36,0.00,,,0.00,WUHU216DAVISVP2,2013-05-19 13:23:00,
2013-05-19 06:28:00,61.1,33.0,29.89,NW,322,4.0,7.0,35,0.00,,,0.00,WUHU216DAVISVP2,2013-05-19 13:28:00,
2013-05-19 06:33:00,61.5,33.4,29.89,NW,323,4.0,6.0,35,0.00,,,0.00,WUHU216DAVISVP2,2013-05-19 13:33:00,
2013-05-19 06:38:00,61.9,33.7,29.89,NW,316,3.0,5.0,35,0.00,,,0.00,WUHU216DAVISVP2,2013-05-19 13:38:00,
2013-05-19 06:43:00,62.5,33.5,29.90,WNW,299,2.0,5.0,34,0.00,,,0.00,WUHU216DAVISVP2,2013-05-19 13:43:00,
2013-05-19 06:48:00,62.8,33.0,29.90,WNW,292,3.0,5.0,33,0.00,,,0.00,WUHU216DAVISVP2,2013-05-19 13:48:00,
2013-05-19 06:53:00,63.0,34.0,29.90,WNW,287,3.0,7.0,34,0.00,,,0.00,WUHU216DAVISVP2,2013-05-19 13:53:00,
2013-05-19 06:58:00,63.4,33.6,29.90,WNW,302,3.0,5.0,33,0.00,,,0.00,WUHU216DAVISVP2,2013-05-19 13:58:00,
2013-05-19 07:03:00,63.7,33.8,29.90,WNW,297,3.0,6.0,33,0.00,,,0.00,WUHU216DAVISVP2,2013-05-19 14:03:00,
2013-05-19 07:08:00,63.9,34.0,29.90,WNW,292,1.0,4.0,33,0.00,,,0.00,WUHU216DAVISVP2,2013-05-19 14:08:00,
2013-05-19 07:13:00,64.2,33.5,29.90,WSW,258,3.0,6.0,32,0.00,,,0.00,WUHU216DAVISVP2,2013-05-19 14:13:00,
2013-05-19 07:18:00,64.2,33.5,29.90,West,269,3.0,5.0,32,0.00,,,0.00,WUHU216DAVISVP2,2013-05-19 14:18:00,
2013-05-19 07:24:00,64.6,33.9,29.90,West,264,2.0,4.0,32,0.00,,,0.00,WUHU216DAVISVP2,2013-05-19 14:24:00,
2013-05-19 07:29:00,64.9,34.1,29.91,WSW,254,2.0,4.0,32,0.00,,,0.00,WUHU216DAVISVP2,2013-05-19 14:29:00,
2013-05-19 07:34:00,65.4,33.8,29.91,WSW,257,3.0,8.0,31,0.00,,,0.00,WUHU216DAVISVP2,2013-05-19 14:34:00,
2013-05-19 07:39:00,65.6,33.1,29.90,WNW,285,3.0,7.0,30,0.00,,,0.00,WUHU216DAVISVP2,2013-05-19 14:39:00,
2013-05-19 07:44:00,65.7,32.4,29.90,West,279,4.0,8.0,29,0.00,,,0.00,WUHU216DAVISVP2,2013-05-19 14:44:00,
2013-05-19 07:49:00,65.7,31.5,29.91,West,268,3.0,6.0,28,0.00,,,0.00,WUHU216DAVISVP2,2013-05-19 14:49:00,
2013-05-19 07:54:00,66.1,32.7,29.91,West,264,3.0,6.0,29,0.00,,,0.00,WUHU216DAVISVP2,2013-05-19 14:54:00,
2013-05-19 07:59:00,66.5,32.2,29.91,WNW,289,3.0,7.0,28,0.00,,,0.00,WUHU216DAVISVP2,2013-05-19 14:59:00,
2013-05-19 08:04:00,66.8,30.7,29.91,West,273,4.0,7.0,26,0.00,,,0.00,WUHU216DAVISVP2,2013-05-19 15:04:00,
2013-05-19 08:09:00,66.8,30.7,29.91,WSW,249,3.0,6.0,26,0.00,,,0.00,WUHU216DAVISVP2,2013-05-19 15:09:00,
2013-05-19 08:14:00,67.0,31.7,29.91,WSW,238,3.0,7.0,27,0.00,,,0.00,WUHU216DAVISVP2,2013-05-19 15:14:00,
2013-05-19 08:19:00,67.1,30.9,29.91,West,269,4.0,8.0,26,0.00,,,0.00,WUHU216DAVISVP2,2013-05-19 15:19:00,
2013-05-19 08:24:00,67.1,30.9,29.91,West,259,3.0,6.0,26,0.00,,,0.00,WUHU216DAVISVP2,2013-05-19 15:24:00,
2013-05-19 08:29:00,67.5,30.3,29.91,SW,234,4.0,8.0,25,0.00,,,0.00,WUHU216DAVISVP2,2013-05-19 15:29:00,
2013-05-19 08:34:00,67.6,29.4,29.91,WSW,240,3.0,6.0,24,0.00,,,0.00,WUHU216DAVISVP2,2013-05-19 15:34:00,
2013-05-19 08:39:00,67.9,27.6,29.91,West,280,4.0,10.0,22,0.00,,,0.00,WUHU216DAVISVP2,2013-05-19 15:39:00,
2013-05-19 08:45:00,68.6,29.2,29.91,West,260,3.0,6.0,23,0.00,,,0.00,WUHU216DAVISVP2,2013-05-19 15:45:00,
2013-05-19 08:50:00,68.8,28.3,29.90,WSW,238,4.0,6.0,22,0.00,,,0.00,WUHU216DAVISVP2,2013-05-19 15:50:00,
2013-05-19 08:55:00,69.2,27.5,29.90,West,275,3.0,6.0,21,0.00,,,0.00,WUHU216DAVISVP2,2013-05-19 15:55:00,
2013-05-19 09:00:00,69.7,26.8,29.91,West,270,3.0,7.0,20,0.00,,,0.00,WUHU216DAVISVP2,2013-05-19 16:00:00,
2013-05-19 09:05:00,70.3,27.3,29.90,West,267,5.0,8.0,20,0.00,,,0.00,WUHU216DAVISVP2,2013-05-19 16:05:00,
2013-05-19 09:10:00,70.6,27.5,29.91,West,274,5.0,8.0,20,0.00,,,0.00,WUHU216DAVISVP2,2013-05-19 16:10:00,
2013-05-19 09:15:00,70.5,27.4,29.90,SW,233,2.0,4.0,20,0.00,,,0.00,WUHU216DAVISVP2,2013-05-19 16:15:00,
2013-05-19 09:20:00,70.7,27.6,29.90,West,276,5.0,9.0,20,0.00,,,0.00,WUHU216DAVISVP2,2013-05-19 16:20:00,
2013-05-19 09:25:00,70.9,26.5,29.90,West,270,3.0,8.0,19,0.00,,,0.00,WUHU216DAVISVP2,2013-05-19 16:25:00,
2013-05-19 09:30:00,71.4,26.9,29.90,WSW,252,3.0,8.0,19,0.00,,,0.00,WUHU216DAVISVP2,2013-05-19 16:30:00,
2013-05-19 09:35:00,72.1,26.2,29.90,West,263,4.0,9.0,18,0.00,,,0.00,WUHU216DAVISVP2,2013-05-19 16:35:00,
2013-05-19 09:40:00,71.7,24.5,29.90,SW,233,5.0,8.0,17,0.00,,,0.00,WUHU216DAVISVP2,2013-05-19 16:40:00,
2013-05-19 09:45:00,71.5,22.9,29.91,WSW,248,4.0,8.0,16,0.00,,,0.00,WUHU216DAVISVP2,2013-05-19 16:45:00,
2013-05-19 09:50:00,71.6,23.0,29.91,West,260,5.0,10.0,16,0.00,,,0.00,WUHU216DAVISVP2,2013-05-19 16:50:00,
2013-05-19 09:56:00,72.1,23.4,29.91,West,281,5.0,9.0,16,0.00,,,0.00,WUHU216DAVISVP2,2013-05-19 16:56:00,
2013-05-19 10:01:00,72.6,20.6,29.91,WNW,282,5.0,11.0,14,0.00,,,0.00,WUHU216DAVISVP2,2013-05-19 17:01:00,
2013-05-19 10:06:00,72.6,22.2,29.90,WSW,237,4.0,7.0,15,0.00,,,0.00,WUHU216DAVISVP2,2013-05-19 17:06:00,
2013-05-19 10:11:00,72.8,22.4,29.90,West,264,6.0,10.0,15,0.00,,,0.00,WUHU216DAVISVP2,2013-05-19 17:11:00,
2013-05-19 10:16:00,73.4,21.2,29.90,WSW,248,6.0,11.0,14,0.00,,,0.00,WUHU216DAVISVP2,2013-05-19 17:16:00,
2013-05-19 10:21:00,73.7,19.6,29.90,WSW,244,3.0,7.0,13,0.00,,,0.00,WUHU216DAVISVP2,2013-05-19 17:21:00,
2013-05-19 10:26:00,73.8,19.7,29.90,WSW,249,6.0,13.0,13,0.00,,,0.00,WUHU216DAVISVP2,2013-05-19 17:26:00,
2013-05-19 10:31:00,74.0,18.0,29.90,WSW,251,3.0,9.0,12,0.00,,,0.00,WUHU216DAVISVP2,2013-05-19 17:31:00,
2013-05-19 10:36:00,74.4,18.3,29.90,West,260,5.0,10.0,12,0.00,,,0.00,WUHU216DAVISVP2,2013-05-19 17:36:00,
2013-05-19 10:41:00,74.8,16.5,29.90,WNW,297,6.0,10.0,11,0.00,,,0.00,WUHU216DAVISVP2,2013-05-19 17:41:00,
2013-05-19 10:46:00,75.2,16.8,29.90,NNW,337,2.0,6.0,11,0.00,,,0.00,WUHU216DAVISVP2,2013-05-19 17:46:00,
2013-05-19 10:51:00,75.4,14.7,29.89,WSW,253,9.0,14.0,10,0.00,,,0.00,WUHU216DAVISVP2,2013-05-19 17:51:00,
2013-05-19 10:56:00,74.8,16.5,29.90,West,267,8.0,13.0,11,0.00,,,0.00,WUHU216DAVISVP2,2013-05-19 17:56:00,
2013-05-19 11:01:00,74.8,16.5,29.89,West,263,4.0,10.0,11,0.00,,,0.00,WUHU216DAVISVP2,2013-05-19 18:01:00,
2013-05-19 11:06:00,75.3,16.9,29.89,West,265,6.0,13.0,11,0.00,,,0.00,WUHU216DAVISVP2,2013-05-19 18:06:00,
2013-05-19 11:12:00,75.3,16.9,29.88,West,276,8.0,17.0,11,0.00,,,0.00,WUHU216DAVISVP2,2013-05-19 18:12:00,
2013-05-19 11:17:00,75.6,17.1,29.89,West,275,9.0,18.0,11,0.00,,,0.00,WUHU216DAVISVP2,2013-05-19 18:17:00,
2013-05-19 11:22:00,76.1,17.5,29.89,West,278,7.0,15.0,11,0.00,,,0.00,WUHU216DAVISVP2,2013-05-19 18:22:00,
2013-05-19 11:27:00,76.6,17.9,29.88,West,263,7.0,14.0,11,0.00,,,0.00,WUHU216DAVISVP2,2013-05-19 18:27:00,
2013-05-19 11:32:00,76.8,18.1,29.88,West,264,10.0,16.0,11,0.00,,,0.00,WUHU216DAVISVP2,2013-05-19 18:32:00,
2013-05-19 11:37:00,76.8,18.1,29.88,West,264,7.0,16.0,11,0.00,,,0.00,WUHU216DAVISVP2,2013-05-19 18:37:00,
2013-05-19 11:42:00,76.6,17.9,29.88,West,260,5.0,10.0,11,0.00,,,0.00,WUHU216DAVISVP2,2013-05-19 18:42:00,
2013-05-19 11:47:00,76.5,17.8,29.88,WSW,255,6.0,12.0,11,0.00,,,0.00,WUHU216DAVISVP2,2013-05-19 18:47:00,
2013-05-19 11:52:00,76.9,18.1,29.88,West,271,7.0,14.0,11,0.00,,,0.00,WUHU216DAVISVP2,2013-05-19 18:52:00,
2013-05-19 11:57:00,77.3,18.4,29.87,WSW,257,6.0,12.0,11,0.00,,,0.00,WUHU216DAVISVP2,2013-05-19 18:57:00,
2013-05-19 12:02:00,76.9,18.1,29.87,West,277,6.0,15.0,11,0.00,,,0.00,WUHU216DAVISVP2,2013-05-19 19:02:00,
2013-05-19 12:07:00,77.0,20.3,29.87,West,261,6.0,13.0,12,0.00,,,0.00,WUHU216DAVISVP2,2013-05-19 19:07:00,
2013-05-19 12:12:00,77.1,20.4,29.86,WSW,247,5.0,11.0,12,0.00,,,0.00,WUHU216DAVISVP2,2013-05-19 19:12:00,
2013-05-19 12:17:00,77.6,18.7,29.86,WNW,283,5.0,11.0,11,0.00,,,0.00,WUHU216DAVISVP2,2013-05-19 19:17:00,
2013-05-19 12:22:00,78.0,19.0,29.86,West,277,6.0,12.0,11,0.00,,,0.00,WUHU216DAVISVP2,2013-05-19 19:22:00,
2013-05-19 12:27:00,78.3,19.2,29.86,SW,236,5.0,10.0,11,0.00,,,0.00,WUHU216DAVISVP2,2013-05-19 19:27:00,
2013-05-19 12:32:00,78.1,21.2,29.85,SSW,195,6.0,13.0,12,0.00,,,0.00,WUHU216DAVISVP2,2013-05-19 19:32:00,
2013-05-19 12:38:00,78.6,19.4,29.85,SSW,213,6.0,9.0,11,0.00,,,0.00,WUHU216DAVISVP2,2013-05-19 19:38:00,
2013-05-19 12:43:00,78.8,19.6,29.85,West,261,6.0,11.0,11,0.00,,,0.00,WUHU216DAVISVP2,2013-05-19 19:43:00,
2013-05-19 12:48:00,79.6,17.9,29.85,WSW,256,6.0,13.0,10,0.00,,,0.00,WUHU216DAVISVP2,2013-05-19 19:48:00,
2013-05-19 12:53:00,79.7,18.0,29.85,SW,219,7.0,13.0,10,0.00,,,0.00,WUHU216DAVISVP2,2013-05-19 19:53:00,
2013-05-19 12:58:00,79.2,19.9,29.84,SSW,210,10.0,16.0,11,0.00,,,0.00,WUHU216DAVISVP2,2013-05-19 19:58:00,
2013-05-19 13:03:00,79.2,17.6,29.85,SW,221,5.0,11.0,10,0.00,,,0.00,WUHU216DAVISVP2,2013-05-19 20:03:00,
2013-05-19 13:08:00,79.6,17.9,29.84,SW,219,5.0,12.0,10,0.00,,,0.00,WUHU216DAVISVP2,2013-05-19 20:08:00,
2013-05-19 13:13:00,80.0,18.2,29.84,SSW,208,4.0,10.0,10,0.00,,,0.00,WUHU216DAVISVP2,2013-05-19 20:13:00,
2013-05-19 13:18:00,80.4,18.5,29.83,SW,219,6.0,15.0,10,0.00,,,0.00,WUHU216DAVISVP2,2013-05-19 20:18:00,
2013-05-19 13:23:00,80.3,16.0,29.84,SW,218,9.0,17.0,9,0.00,,,0.00,WUHU216DAVISVP2,2013-05-19 20:23:00,
2013-05-19 13:28:00,80.7,16.3,29.83,WSW,239,6.0,13.0,9,0.00,,,0.00,WUHU216DAVISVP2,2013-05-19 20:28:00,
2013-05-19 13:33:00,80.7,16.3,29.83,SW,227,5.0,10.0,9,0.00,,,0.00,WUHU216DAVISVP2,2013-05-19 20:33:00,
2013-05-19 13:38:00,81.4,14.1,29.83,West,277,9.0,16.0,8,0.00,,,0.00,WUHU216DAVISVP2,2013-05-19 20:38:00,
2013-05-19 13:43:00,81.3,14.0,29.83,West,263,7.0,14.0,8,0.00,,,0.00,WUHU216DAVISVP2,2013-05-19 20:43:00,
2013-05-19 13:48:00,81.7,17.0,29.83,WNW,288,6.0,14.0,9,0.00,,,0.00,WUHU216DAVISVP2,2013-05-19 20:48:00,
2013-05-19 13:53:00,82.0,17.2,29.82,West,276,9.0,15.0,9,0.00,,,0.00,WUHU216DAVISVP2,2013-05-19 20:53:00,
2013-05-19 13:59:00,82.0,17.2,29.82,WSW,257,8.0,13.0,9,0.00,,,0.00,WUHU216DAVISVP2,2013-05-19 20:59:00,
2013-05-19 14:04:00,82.8,17.8,29.82,West,277,8.0,16.0,9,0.00,,,0.00,WUHU216DAVISVP2,2013-05-19 21:04:00,
2013-05-19 14:09:00,82.7,17.8,29.82,West,275,8.0,12.0,9,0.00,,,0.00,WUHU216DAVISVP2,2013-05-19 21:09:00,
2013-05-19 14:14:00,82.8,17.8,29.81,West,279,7.0,14.0,9,0.00,,,0.00,WUHU216DAVISVP2,2013-05-19 21:14:00,
2013-05-19 14:19:00,83.1,18.1,29.81,West,279,8.0,14.0,9,0.00,,,0.00,WUHU216DAVISVP2,2013-05-19 21:19:00,
2013-05-19 14:24:00,82.5,20.1,29.81,West,273,9.0,15.0,10,0.00,,,0.00,WUHU216DAVISVP2,2013-05-19 21:24:00,
2013-05-19 14:29:00,82.1,19.8,29.81,West,271,10.0,15.0,10,0.00,,,0.00,WUHU216DAVISVP2,2013-05-19 21:29:00,
2013-05-19 14:34:00,82.3,20.0,29.81,WSW,241,7.0,14.0,10,0.00,,,0.00,WUHU216DAVISVP2,2013-05-19 21:34:00,
2013-05-19 14:39:00,82.3,22.3,29.80,WSW,249,10.0,18.0,11,0.00,,,0.00,WUHU216DAVISVP2,2013-05-19 21:39:00,
2013-05-19 14:44:00,82.5,22.4,29.80,WNW,295,9.0,14.0,11,0.00,,,0.00,WUHU216DAVISVP2,2013-05-19 21:44:00,
2013-05-19 14:50:00,82.7,22.6,29.80,West,271,10.0,17.0,11,0.00,,,0.00,WUHU216DAVISVP2,2013-05-19 21:50:00,
2013-05-19 14:55:00,82.6,22.5,29.80,West,276,9.0,15.0,11,0.00,,,0.00,WUHU216DAVISVP2,2013-05-19 21:55:00,
2013-05-19 15:00:00,82.7,22.6,29.80,WNW,284,6.0,11.0,11,0.00,,,0.00,WUHU216DAVISVP2,2013-05-19 22:00:00,
2013-05-19 15:05:00,82.6,22.5,29.79,West,279,7.0,18.0,11,0.00,,,0.00,WUHU216DAVISVP2,2013-05-19 22:05:00,
2013-05-19 15:10:00,83.3,23.0,29.80,West,265,10.0,17.0,11,0.00,,,0.00,WUHU216DAVISVP2,2013-05-19 22:10:00,
2013-05-19 15:15:00,83.3,25.2,29.79,West,278,8.0,13.0,12,0.00,,,0.00,WUHU216DAVISVP2,2013-05-19 22:15:00,
2013-05-19 15:21:00,83.7,27.5,29.79,West,277,7.0,14.0,13,0.00,,,0.00,WUHU216DAVISVP2,2013-05-19 22:21:00,
2013-05-19 15:26:00,83.5,25.3,29.79,WNW,283,10.0,18.0,12,0.00,,,0.00,WUHU216DAVISVP2,2013-05-19 22:26:00,
2013-05-19 15:31:00,83.3,25.2,29.78,West,267,6.0,11.0,12,0.00,,,0.00,WUHU216DAVISVP2,2013-05-19 22:31:00,
2013-05-19 15:36:00,83.4,25.3,29.78,WNW,285,7.0,12.0,12,0.00,,,0.00,WUHU216DAVISVP2,2013-05-19 22:36:00,
2013-05-19 15:41:00,83.0,26.9,29.78,WNW,300,8.0,17.0,13,0.00,,,0.00,WUHU216DAVISVP2,2013-05-19 22:41:00,
2013-05-19 15:46:00,82.6,26.6,29.78,WNW,286,10.0,16.0,13,0.00,,,0.00,WUHU216DAVISVP2,2013-05-19 22:46:00,
2013-05-19 15:51:00,82.7,26.7,29.78,West,263,9.0,17.0,13,0.00,,,0.00,WUHU216DAVISVP2,2013-05-19 22:51:00,
2013-05-19 15:56:00,82.6,24.7,29.78,WNW,293,9.0,18.0,12,0.00,,,0.00,WUHU216DAVISVP2,2013-05-19 22:56:00,
2013-05-19 16:02:00,82.0,26.2,29.78,WNW,297,10.0,20.0,13,0.00,,,0.00,WUHU216DAVISVP2,2013-05-19 23:02:00,
2013-05-19 16:07:00,81.9,26.1,29.78,WNW,299,8.0,14.0,13,0.00,,,0.00,WUHU216DAVISVP2,2013-05-19 23:07:00,
2013-05-19 16:12:00,81.5,25.8,29.77,WNW,289,9.0,15.0,13,0.00,,,0.00,WUHU216DAVISVP2,2013-05-19 23:12:00,
2013-05-19 16:17:00,81.7,25.9,29.77,WNW,298,9.0,18.0,13,0.00,,,0.00,WUHU216DAVISVP2,2013-05-19 23:17:00,
2013-05-19 16:22:00,81.5,23.8,29.78,WNW,284,11.0,21.0,12,0.00,,,0.00,WUHU216DAVISVP2,2013-05-19 23:22:00,
2013-05-19 16:27:00,81.7,25.9,29.77,West,276,9.0,19.0,13,0.00,,,0.00,WUHU216DAVISVP2,2013-05-19 23:27:00,
2013-05-19 16:32:00,81.7,25.9,29.78,WNW,297,8.0,14.0,13,0.00,,,0.00,WUHU216DAVISVP2,2013-05-19 23:32:00,
2013-05-19 16:38:00,81.6,25.8,29.78,West,280,10.0,18.0,13,0.00,,,0.00,WUHU216DAVISVP2,2013-05-19 23:38:00,
2013-05-19 16:43:00,81.2,25.5,29.78,WNW,290,10.0,17.0,13,0.00,,,0.00,WUHU216DAVISVP2,2013-05-19 23:43:00,
2013-05-19 16:48:00,80.5,26.8,29.77,WNW,288,12.0,19.0,14,0.00,,,0.00,WUHU216DAVISVP2,2013-05-19 23:48:00,
2013-05-19 16:53:00,80.6,26.9,29.78,WNW,282,9.0,17.0,14,0.00,,,0.00,WUHU216DAVISVP2,2013-05-19 23:53:00,
2013-05-19 16:58:00,80.8,27.1,29.78,WNW,298,9.0,17.0,14,0.00,,,0.00,WUHU216DAVISVP2,2013-05-19 23:58:00,
2013-05-19 17:03:00,80.4,26.7,29.78,WNW,297,9.0,16.0,14,0.00,,,0.00,WUHU216DAVISVP2,2013-05-20 00:03:00,
2013-05-19 17:08:00,79.8,28.0,29.78,WNW,298,12.0,23.0,15,0.00,,,0.00,WUHU216DAVISVP2,2013-05-20 00:08:00,
2013-05-19 17:13:00,79.9,28.1,29.78,WNW,300,10.0,17.0,15,0.00,,,0.00,WUHU216DAVISVP2,2013-05-20 00:13:00,
2013-05-19 17:19:00,79.7,29.5,29.78,WNW,290,10.0,17.0,16,0.00,,,0.00,WUHU216DAVISVP2,2013-05-20 00:19:00,
2013-05-19 17:24:00,79.7,29.5,29.78,WNW,301,9.0,14.0,16,0.00,,,0.00,WUHU216DAVISVP2,2013-05-20 00:24:00,
2013-05-19 17:29:00,79.4,29.3,29.77,NW,306,10.0,17.0,16,0.00,,,0.00,WUHU216DAVISVP2,2013-05-20 00:29:00,
2013-05-19 17:34:00,78.9,28.8,29.77,WNW,302,12.0,20.0,16,0.00,,,0.00,WUHU216DAVISVP2,2013-05-20 00:34:00,
2013-05-19 17:39:00,78.7,28.7,29.78,WNW,302,12.0,19.0,16,0.00,,,0.00,WUHU216DAVISVP2,2013-05-20 00:39:00,
2013-05-19 17:44:00,78.5,28.5,29.77,WNW,288,12.0,20.0,16,0.00,,,0.00,WUHU216DAVISVP2,2013-05-20 00:44:00,
2013-05-19 17:49:00,78.4,28.4,29.77,WNW,294,9.0,17.0,16,0.00,,,0.00,WUHU216DAVISVP2,2013-05-20 00:49:00,
2013-05-19 17:54:00,78.3,28.4,29.77,WNW,298,10.0,17.0,16,0.00,,,0.00,WUHU216DAVISVP2,2013-05-20 00:54:00,
2013-05-19 17:59:00,78.0,28.1,29.77,WNW,297,9.0,16.0,16,0.00,,,0.00,WUHU216DAVISVP2,2013-05-20 00:59:00,
2013-05-19 18:04:00,77.8,28.0,29.78,WNW,291,9.0,14.0,16,0.00,,,0.00,WUHU216DAVISVP2,2013-05-20 01:04:00,
2013-05-19 18:09:00,77.4,27.6,29.77,WNW,297,11.0,18.0,16,0.00,,,0.00,WUHU216DAVISVP2,2013-05-20 01:09:00,
2013-05-19 18:14:00,77.0,28.8,29.78,WNW,297,12.0,17.0,17,0.00,,,0.00,WUHU216DAVISVP2,2013-05-20 01:14:00,
2013-05-19 18:19:00,76.7,28.6,29.78,WNW,299,11.0,19.0,17,0.00,,,0.00,WUHU216DAVISVP2,2013-05-20 01:19:00,
2013-05-19 18:24:00,76.6,28.5,29.78,WNW,295,10.0,14.0,17,0.00,,,0.00,WUHU216DAVISVP2,2013-05-20 01:24:00,
2013-05-19 18:29:00,76.2,28.2,29.78,WNW,295,10.0,18.0,17,0.00,,,0.00,WUHU216DAVISVP2,2013-05-20 01:29:00,
2013-05-19 18:34:00,75.9,27.9,29.78,WNW,292,10.0,16.0,17,0.00,,,0.00,WUHU216DAVISVP2,2013-05-20 01:34:00,
2013-05-19 18:39:00,75.5,27.6,29.78,WNW,299,10.0,17.0,17,0.00,,,0.00,WUHU216DAVISVP2,2013-05-20 01:39:00,
2013-05-19 18:45:00,74.9,27.1,29.78,WNW,299,10.0,16.0,17,0.00,,,0.00,WUHU216DAVISVP2,2013-05-20 01:45:00,
2013-05-19 18:50:00,74.5,26.8,29.79,WNW,300,9.0,14.0,17,0.00,,,0.00,WUHU216DAVISVP2,2013-05-20 01:50:00,
2013-05-19 18:55:00,74.3,26.6,29.79,WNW,301,10.0,18.0,17,0.00,,,0.00,WUHU216DAVISVP2,2013-05-20 01:55:00,
2013-05-19 19:00:00,74.2,26.5,29.79,WNW,298,11.0,18.0,17,0.00,,,0.00,WUHU216DAVISVP2,2013-05-20 02:00:00,
2013-05-19 19:05:00,73.9,26.3,29.79,WNW,296,7.0,13.0,17,0.00,,,0.00,WUHU216DAVISVP2,2013-05-20 02:05:00,
2013-05-19 19:10:00,73.7,26.1,29.80,WNW,292,8.0,17.0,17,0.00,,,0.00,WUHU216DAVISVP2,2013-05-20 02:10:00,
2013-05-19 19:15:00,73.4,25.9,29.80,NW,310,8.0,13.0,17,0.00,,,0.00,WUHU216DAVISVP2,2013-05-20 02:15:00,
2013-05-19 19:20:00,73.0,25.6,29.81,WNW,303,7.0,13.0,17,0.00,,,0.00,WUHU216DAVISVP2,2013-05-20 02:20:00,
2013-05-19 19:25:00,72.7,25.3,29.81,NW,308,8.0,13.0,17,0.00,,,0.00,WUHU216DAVISVP2,2013-05-20 02:25:00,
2013-05-19 19:30:00,72.5,25.2,29.81,NW,304,5.0,9.0,17,0.00,,,0.00,WUHU216DAVISVP2,2013-05-20 02:30:00,
2013-05-19 19:35:00,71.9,26.0,29.82,NW,315,4.0,7.0,18,0.00,,,0.00,WUHU216DAVISVP2,2013-05-20 02:35:00,
2013-05-19 19:40:00,71.7,25.9,29.82,NW,304,7.0,12.0,18,0.00,,,0.00,WUHU216DAVISVP2,2013-05-20 02:40:00,
2013-05-19 19:45:00,71.7,25.9,29.82,NW,307,7.0,11.0,18,0.00,,,0.00,WUHU216DAVISVP2,2013-05-20 02:45:00,
2013-05-19 19:51:00,71.7,27.2,29.82,WNW,292,7.0,13.0,19,0.00,,,0.00,WUHU216DAVISVP2,2013-05-20 02:51:00,
2013-05-19 19:56:00,71.8,27.3,29.82,WNW,299,9.0,14.0,19,0.00,,,0.00,WUHU216DAVISVP2,2013-05-20 02:56:00,
2013-05-19 20:01:00,71.8,27.3,29.82,WNW,295,9.0,16.0,19,0.00,,,0.00,WUHU216DAVISVP2,2013-05-20 03:01:00,
2013-05-19 20:06:00,71.6,27.1,29.83,WNW,289,8.0,17.0,19,0.00,,,0.00,WUHU216DAVISVP2,2013-05-20 03:06:00,
2013-05-19 20:11:00,71.2,26.8,29.83,WNW,301,7.0,11.0,19,0.00,,,0.00,WUHU216DAVISVP2,2013-05-20 03:11:00,
2013-05-19 20:16:00,70.8,26.4,29.83,WNW,296,8.0,14.0,19,0.00,,,0.00,WUHU216DAVISVP2,2013-05-20 03:16:00,
2013-05-19 20:21:00,70.8,26.4,29.83,WNW,297,10.0,17.0,19,0.00,,,0.00,WUHU216DAVISVP2,2013-05-20 03:21:00,
2013-05-19 20:26:00,70.7,26.4,29.83,WNW,293,10.0,15.0,19,0.00,,,0.00,WUHU216DAVISVP2,2013-05-20 03:26:00,
2013-05-19 20:31:00,70.7,26.4,29.83,WNW,296,11.0,20.0,19,0.00,,,0.00,WUHU216DAVISVP2,2013-05-20 03:31:00,
2013-05-19 20:36:00,70.7,26.4,29.83,WNW,302,11.0,18.0,19,0.00,,,0.00,WUHU216DAVISVP2,2013-05-20 03:36:00,
2013-05-19 20:41:00,70.7,27.6,29.83,WNW,302,12.0,18.0,20,0.00,,,0.00,WUHU216DAVISVP2,2013-05-20 03:41:00,
2013-05-19 20:46:00,70.7,27.6,29.83,WNW,301,11.0,16.0,20,0.00,,,0.00,WUHU216DAVISVP2,2013-05-20 03:46:00,
2013-05-19 20:51:00,70.6,27.5,29.83,WNW,300,11.0,17.0,20,0.00,,,0.00,WUHU216DAVISVP2,2013-05-20 03:51:00,
2013-05-19 20:56:00,70.5,27.4,29.84,WNW,299,10.0,15.0,20,0.00,,,0.00,WUHU216DAVISVP2,2013-05-20 03:56:00,
2013-05-19 21:01:00,70.3,27.3,29.84,WNW,296,9.0,15.0,20,0.00,,,0.00,WUHU216DAVISVP2,2013-05-20 04:01:00,
2013-05-19 21:06:00,70.1,27.1,29.84,WNW,295,7.0,11.0,20,0.00,,,0.00,WUHU216DAVISVP2,2013-05-20 04:06:00,
2013-05-19 21:12:00,70.1,27.1,29.85,NW,304,7.0,17.0,20,0.00,,,0.00,WUHU216DAVISVP2,2013-05-20 04:12:00,
2013-05-19 21:17:00,70.0,27.0,29.85,WNW,297,7.0,15.0,20,0.00,,,0.00,WUHU216DAVISVP2,2013-05-20 04:17:00,
2013-05-19 21:22:00,69.7,26.8,29.85,NW,312,5.0,10.0,20,0.00,,,0.00,WUHU216DAVISVP2,2013-05-20 04:22:00,
2013-05-19 21:27:00,69.5,26.6,29.86,WNW,298,6.0,9.0,20,0.00,,,0.00,WUHU216DAVISVP2,2013-05-20 04:27:00,
2013-05-19 21:32:00,69.4,27.7,29.86,WNW,303,6.0,10.0,21,0.00,,,0.00,WUHU216DAVISVP2,2013-05-20 04:32:00,
2013-05-19 21:37:00,69.2,27.5,29.85,WNW,298,7.0,13.0,21,0.00,,,0.00,WUHU216DAVISVP2,2013-05-20 04:37:00,
2013-05-19 21:42:00,69.0,27.4,29.85,WNW,303,7.0,14.0,21,0.00,,,0.00,WUHU216DAVISVP2,2013-05-20 04:42:00,
2013-05-19 21:47:00,69.1,27.4,29.85,WNW,300,8.0,14.0,21,0.00,,,0.00,WUHU216DAVISVP2,2013-05-20 04:47:00,
2013-05-19 21:52:00,69.1,27.4,29.85,WNW,290,8.0,14.0,21,0.00,,,0.00,WUHU216DAVISVP2,2013-05-20 04:52:00,
2013-05-19 21:57:00,69.2,27.5,29.85,WNW,296,8.0,14.0,21,0.00,,,0.00,WUHU216DAVISVP2,2013-05-20 04:57:00,
2013-05-19 22:02:00,69.3,27.6,29.85,WNW,288,9.0,15.0,21,0.00,,,0.00,WUHU216DAVISVP2,2013-05-20 05:02:00,
2013-05-19 22:07:00,69.2,27.5,29.85,WNW,292,8.0,13.0,21,0.00,,,0.00,WUHU216DAVISVP2,2013-05-20 05:07:00,
2013-05-19 22:12:00,69.2,27.5,29.85,WNW,296,9.0,14.0,21,0.00,,,0.00,WUHU216DAVISVP2,2013-05-20 05:12:00,
2013-05-19 22:17:00,69.0,28.5,29.85,WNW,284,7.0,18.0,22,0.00,,,0.00,WUHU216DAVISVP2,2013-05-20 05:17:00,
2013-05-19 22:22:00,68.8,28.3,29.85,WNW,291,8.0,15.0,22,0.00,,,0.00,WUHU216DAVISVP2,2013-05-20 05:22:00,
2013-05-19 22:27:00,68.6,28.1,29.86,WNW,285,7.0,14.0,22,0.00,,,0.00,WUHU216DAVISVP2,2013-05-20 05:27:00,
2013-05-19 22:33:00,68.5,28.1,29.86,WNW,298,7.0,13.0,22,0.00,,,0.00,WUHU216DAVISVP2,2013-05-20 05:33:00,
2013-05-19 22:38:00,68.4,28.0,29.85,WNW,298,8.0,14.0,22,0.00,,,0.00,WUHU216DAVISVP2,2013-05-20 05:38:00,
2013-05-19 22:43:00,68.1,27.7,29.85,WNW,297,8.0,13.0,22,0.00,,,0.00,WUHU216DAVISVP2,2013-05-20 05:43:00,
2013-05-19 22:48:00,67.9,27.6,29.85,NW,306,9.0,15.0,22,0.00,,,0.00,WUHU216DAVISVP2,2013-05-20 05:48:00,
2013-05-19 22:53:00,67.9,27.6,29.85,WNW,302,8.0,14.0,22,0.00,,,0.00,WUHU216DAVISVP2,2013-05-20 05:53:00,
2013-05-19 22:58:00,67.8,27.5,29.85,NW,308,8.0,15.0,22,0.00,,,0.00,WUHU216DAVISVP2,2013-05-20 05:58:00,
2013-05-19 23:03:00,67.6,28.4,29.85,NW,305,7.0,11.0,23,0.00,,,0.00,WUHU216DAVISVP2,2013-05-20 06:03:00,
2013-05-19 23:08:00,67.3,28.1,29.85,NW,311,7.0,11.0,23,0.00,,,0.00,WUHU216DAVISVP2,2013-05-20 06:08:00,
2013-05-19 23:13:00,66.6,27.5,29.85,NW,317,7.0,11.0,23,0.00,,,0.00,WUHU216DAVISVP2,2013-05-20 06:13:00,
2013-05-19 23:18:00,65.9,28.0,29.86,NW,320,6.0,12.0,24,0.00,,,0.00,WUHU216DAVISVP2,2013-05-20 06:18:00,
2013-05-19 23:23:00,64.9,27.1,29.86,NW,321,5.0,8.0,24,0.00,,,0.00,WUHU216DAVISVP2,2013-05-20 06:23:00,
2013-05-19 23:28:00,64.7,27.9,29.86,NW,313,4.0,7.0,25,0.00,,,0.00,WUHU216DAVISVP2,2013-05-20 06:28:00,
2013-05-19 23:33:00,65.1,28.3,29.86,NW,304,5.0,8.0,25,0.00,,,0.00,WUHU216DAVISVP2,2013-05-20 06:33:00,
2013-05-19 23:38:00,65.3,27.4,29.86,WNW,297,5.0,10.0,24,0.00,,,0.00,WUHU216DAVISVP2,2013-05-20 06:38:00,
2013-05-19 23:43:00,65.5,28.6,29.86,NW,308,6.0,9.0,25,0.00,,,0.00,WUHU216DAVISVP2,2013-05-20 06:43:00,
2013-05-19 23:48:00,65.6,27.7,29.86,NW,304,6.0,9.0,24,0.00,,,0.00,WUHU216DAVISVP2,2013-05-20 06:48:00,
2013-05-19 23:53:00,65.5,27.6,29.86,NW,305,6.0,10.0,24,0.00,,,0.00,WUHU216DAVISVP2,2013-05-20 06:53:00,
2013-05-19 23:58:00,65.3,27.4,29.86,NW,311,5.0,9.0,24,0.00,,,0.00,WUHU216DAVISVP2,2013-05-20 06:58:00,